Time;durP1;ratioP1;P1;durP2;ratioP2;P2;SDS_P1;SDS_P2;PMS_P1;PMS_P2;Temp;Humidity;BMP_temperature;BMP_pressure;BME280_temperature;BME280_humidity;BME280_pressure;Samples;Min_cycle;Max_cycle;Signal;HPM_P1;HPM_P2
2022/08/15 00:01:15;;;;;;;12.02;10.10;;;27.30;87.60;;;;;;5095143;28;20601;-57
2022/08/15 00:03:45;;;;;;;14.48;9.20;;;27.30;88.20;;;;;;5096423;28;20212;-59
2022/08/15 00:06:18;;;;;;;14.93;10.48;;;27.20;88.60;;;;;;5094919;28;20200;-56
2022/08/15 00:08:50;;;;;;;13.02;10.20;;;27.10;89.10;;;;;;5114166;28;20215;-52
2022/08/15 00:11:37;;;;;;;12.98;9.70;;;27.10;89.50;;;;;;5104460;28;20211;-51
2022/08/15 00:14:13;;;;;;;14.38;10.73;;;27.10;89.80;;;;;;5095832;28;20186;-52
2022/08/15 00:16:42;;;;;;;13.77;10.05;;;27.10;90.00;;;;;;5111478;27;20181;-60
2022/08/15 00:19:15;;;;;;;12.52;10.38;;;27.10;90.20;;;;;;5102264;28;20181;-56
2022/08/15 00:21:46;;;;;;;14.48;10.75;;;27.00;90.30;;;;;;5109731;28;20237;-52
2022/08/15 00:24:15;;;;;;;13.57;10.95;;;27.00;90.50;;;;;;5115249;28;20223;-53
2022/08/15 00:26:42;;;;;;;14.68;10.95;;;27.00;90.70;;;;;;5100554;28;20216;-56
2022/08/15 00:29:08;;;;;;;13.55;10.25;;;26.90;90.90;;;;;;5072354;28;20215;-62
2022/08/15 00:31:35;;;;;;;14.27;10.60;;;26.90;91.00;;;;;;5077520;28;20181;-56
2022/08/15 00:34:02;;;;;;;15.85;10.45;;;26.90;91.10;;;;;;5098993;28;20182;-54
2022/08/15 00:36:30;;;;;;;17.80;13.52;;;26.80;91.20;;;;;;5094197;28;20622;-56
2022/08/15 00:38:57;;;;;;;16.65;13.68;;;26.80;91.40;;;;;;5094363;28;20189;-56
2022/08/15 00:41:39;;;;;;;15.88;11.90;;;26.70;91.70;;;;;;5085853;28;20260;-56
2022/08/15 00:44:17;;;;;;;21.45;11.43;;;26.60;92.00;;;;;;5087222;28;20182;-56
2022/08/15 00:46:47;;;;;;;13.40;11.48;;;26.60;92.30;;;;;;5099871;28;20279;-56
2022/08/15 00:49:14;;;;;;;13.35;10.73;;;26.50;92.50;;;;;;5094087;28;20189;-54
2022/08/15 00:52:05;;;;;;;17.48;10.90;;;26.50;92.70;;;;;;5094137;28;20181;-57
2022/08/15 00:54:38;;;;;;;14.70;10.75;;;26.40;92.70;;;;;;5094190;28;20628;-57
2022/08/15 00:57:09;;;;;;;12.38;10.90;;;26.40;92.80;;;;;;5099967;28;20178;-55
2022/08/15 00:59:40;;;;;;;15.40;11.93;;;26.40;92.90;;;;;;5093379;28;20625;-54
2022/08/15 01:02:14;;;;;;;14.15;11.43;;;26.50;93.00;;;;;;5088649;28;20206;-57
2022/08/15 01:04:40;;;;;;;16.20;11.77;;;26.50;93.00;;;;;;5094175;28;20214;-56
2022/08/15 01:07:07;;;;;;;14.77;11.68;;;26.50;93.10;;;;;;5107235;28;20637;-58
2022/08/15 01:09:37;;;;;;;13.38;11.98;;;26.50;93.20;;;;;;5075944;28;20173;-55
2022/08/15 01:12:08;;;;;;;16.05;12.15;;;26.50;93.30;;;;;;5096852;28;20209;-55
2022/08/15 01:14:36;;;;;;;12.68;11.20;;;26.50;93.40;;;;;;5110317;28;20254;-56
2022/08/15 01:17:04;;;;;;;14.80;11.73;;;26.40;93.40;;;;;;5086407;28;20219;-59
2022/08/15 01:19:34;;;;;;;14.18;11.52;;;26.40;93.50;;;;;;5105866;28;20235;-53
2022/08/15 01:22:25;;;;;;;15.63;12.00;;;26.40;93.60;;;;;;5094883;28;20216;-56
2022/08/15 01:24:59;;;;;;;15.20;11.88;;;26.40;93.70;;;;;;5093345;28;20761;-56
2022/08/15 01:27:31;;;;;;;18.55;13.00;;;26.30;94.00;;;;;;5093670;28;20249;-56
2022/08/15 01:29:58;;;;;;;14.80;12.55;;;26.20;94.40;;;;;;5088926;28;20685;-57
2022/08/15 01:32:25;;;;;;;15.55;13.00;;;26.10;94.70;;;;;;5091552;28;20190;-55
2022/08/15 01:34:51;;;;;;;17.45;14.18;;;26.10;95.00;;;;;;5112349;28;20181;-54
2022/08/15 01:37:17;;;;;;;27.83;18.88;;;26.00;95.20;;;;;;5094306;28;20180;-55
2022/08/15 01:39:58;;;;;;;17.13;13.40;;;26.00;95.30;;;;;;5078389;28;20182;-57
2022/08/15 01:42:34;;;;;;;15.40;13.18;;;26.00;95.40;;;;;;5101191;28;20628;-60
2022/08/15 01:45:06;;;;;;;18.33;12.63;;;26.00;95.60;;;;;;5093954;28;20185;-61
2022/08/15 01:47:51;;;;;;;15.88;12.73;;;25.90;95.80;;;;;;5093365;28;20720;-56
2022/08/15 01:50:27;;;;;;;16.40;11.95;;;25.90;95.80;;;;;;5075062;28;20189;-55
2022/08/15 01:53:09;;;;;;;14.15;12.05;;;25.90;95.70;;;;;;5093603;28;20188;-61
2022/08/15 01:55:55;;;;;;;21.08;13.15;;;25.90;95.70;;;;;;5090794;28;20672;-54
2022/08/15 01:58:27;;;;;;;17.45;12.60;;;25.90;95.70;;;;;;5106507;28;20182;-56
2022/08/15 02:01:02;;;;;;;16.92;13.52;;;25.90;95.80;;;;;;5088250;28;20620;-57
2022/08/15 02:03:33;;;;;;;21.05;13.25;;;25.90;95.90;;;;;;5087023;28;20203;-55
2022/08/15 02:06:09;;;;;;;18.48;14.10;;;25.90;96.00;;;;;;5094949;28;20713;-56
2022/08/15 02:08:36;;;;;;;20.38;16.75;;;25.80;96.30;;;;;;5099912;28;20180;-56
2022/08/15 02:11:08;;;;;;;21.58;16.23;;;25.50;96.80;;;;;;5094234;28;20178;-56
2022/08/15 02:13:41;;;;;;;20.63;15.93;;;25.40;97.20;;;;;;5105935;28;20639;-57
2022/08/15 02:16:07;;;;;;;18.40;16.33;;;25.30;97.60;;;;;;5092435;28;20268;-55
2022/08/15 02:18:34;;;;;;;18.83;16.67;;;25.20;97.70;;;;;;5101667;28;20174;-56
2022/08/15 02:20:59;;;;;;;21.83;16.65;;;25.30;97.80;;;;;;5075036;28;20265;-54
2022/08/15 02:23:26;;;;;;;21.23;15.98;;;25.30;97.80;;;;;;5092988;28;20352;-55
2022/08/15 02:25:54;;;;;;;19.67;16.15;;;25.30;97.80;;;;;;5100073;28;20266;-54
2022/08/15 02:28:23;;;;;;;24.55;18.48;;;25.30;97.90;;;;;;5088127;28;20209;-57
2022/08/15 02:30:49;;;;;;;22.13;17.52;;;25.20;97.90;;;;;;5082205;28;20181;-56
2022/08/15 02:33:15;;;;;;;19.98;15.82;;;25.30;97.90;;;;;;5073960;28;20181;-57
2022/08/15 02:35:41;;;;;;;24.45;15.48;;;25.30;98.00;;;;;;5071825;28;20274;-56
2022/08/15 02:38:08;;;;;;;21.90;16.55;;;25.20;98.00;;;;;;5090293;28;20186;-58
2022/08/15 02:40:35;;;;;;;18.60;14.18;;;25.20;98.00;;;;;;5083107;28;20185;-56
2022/08/15 02:43:10;;;;;;;24.27;14.07;;;25.20;98.00;;;;;;5099846;28;20208;-57
2022/08/15 02:45:47;;;;;;;18.90;14.10;;;25.30;98.00;;;;;;5090347;28;20592;-55
2022/08/15 02:48:14;;;;;;;17.42;13.95;;;25.30;97.90;;;;;;5092687;28;20620;-56
2022/08/15 02:50:42;;;;;;;16.95;13.25;;;25.40;97.80;;;;;;5091487;28;20192;-57
2022/08/15 02:53:14;;;;;;;18.23;13.88;;;25.40;97.70;;;;;;5090823;28;20312;-54
2022/08/15 02:55:43;;;;;;;18.38;14.75;;;25.40;97.60;;;;;;5079214;28;20196;-54
2022/08/15 02:58:10;;;;;;;22.40;14.18;;;25.50;97.50;;;;;;5078727;28;20185;-54
2022/08/15 03:00:38;;;;;;;18.52;14.10;;;25.50;97.30;;;;;;5081450;28;20173;-53
2022/08/15 03:03:12;;;;;;;15.82;13.57;;;25.50;97.20;;;;;;5090927;28;20209;-55
2022/08/15 03:05:42;;;;;;;16.08;12.82;;;25.50;97.20;;;;;;5101113;28;20192;-55
2022/08/15 03:08:08;;;;;;;15.38;13.00;;;25.50;97.20;;;;;;5074524;28;20221;-57
2022/08/15 03:10:36;;;;;;;16.75;13.43;;;25.50;97.10;;;;;;5059378;28;20242;-53
2022/08/15 03:13:06;;;;;;;16.27;13.13;;;25.50;97.10;;;;;;5091102;28;20629;-55
2022/08/15 03:15:42;;;;;;;16.95;13.15;;;25.60;97.10;;;;;;5096750;28;20554;-55
2022/08/15 03:18:10;;;;;;;17.67;13.15;;;25.50;97.00;;;;;;5085132;28;20210;-57
2022/08/15 03:20:36;;;;;;;18.33;13.05;;;25.50;97.00;;;;;;5083466;28;20658;-55
2022/08/15 03:23:06;;;;;;;16.40;11.95;;;25.50;96.90;;;;;;5100433;28;20174;-54
2022/08/15 03:25:42;;;;;;;14.07;12.32;;;25.50;96.80;;;;;;5085968;28;20176;-55
2022/08/15 03:28:09;;;;;;;16.15;11.82;;;25.50;96.60;;;;;;5102149;28;20228;-59
2022/08/15 03:30:37;;;;;;;18.92;12.05;;;25.40;96.50;;;;;;5081403;28;20265;-57
2022/08/15 03:33:06;;;;;;;14.70;12.38;;;25.40;96.40;;;;;;5076852;28;20942;-54
2022/08/15 03:35:40;;;;;;;16.02;12.15;;;25.40;96.30;;;;;;5088349;28;20573;-55
2022/08/15 03:38:07;;;;;;;14.07;12.60;;;25.40;96.40;;;;;;5085075;28;20328;-54
2022/08/15 03:40:37;;;;;;;17.35;12.57;;;25.40;96.40;;;;;;5089275;28;20272;-52
2022/08/15 03:43:20;;;;;;;16.63;13.43;;;25.40;96.50;;;;;;5089816;28;20186;-54
2022/08/15 03:45:52;;;;;;;13.60;12.27;;;25.40;96.70;;;;;;5077239;28;20173;-57
2022/08/15 03:48:29;;;;;;;16.63;13.00;;;25.40;96.80;;;;;;5084732;28;20209;-54
2022/08/15 03:50:57;;;;;;;19.00;13.23;;;25.30;96.90;;;;;;5092071;28;20196;-56
2022/08/15 03:53:23;;;;;;;16.35;13.00;;;25.30;96.90;;;;;;5090449;28;20223;-54
2022/08/15 03:55:49;;;;;;;16.33;13.10;;;25.30;96.80;;;;;;5066454;28;20177;-54
2022/08/15 03:58:15;;;;;;;17.05;13.48;;;25.30;96.80;;;;;;5092801;28;20177;-54
2022/08/15 04:00:46;;;;;;;17.40;13.45;;;25.30;96.70;;;;;;5079185;27;20186;-55
2022/08/15 04:03:19;;;;;;;15.73;13.00;;;25.20;96.70;;;;;;5083232;28;20181;-53
2022/08/15 04:05:51;;;;;;;20.75;13.75;;;25.20;96.70;;;;;;5090929;28;20173;-55
2022/08/15 04:08:22;;;;;;;15.07;13.48;;;25.20;96.90;;;;;;5087529;28;20222;-53
2022/08/15 04:10:51;;;;;;;16.52;13.75;;;25.10;97.10;;;;;;5083499;28;20197;-55
2022/08/15 04:13:25;;;;;;;20.13;13.35;;;25.00;97.30;;;;;;5091372;28;20270;-53
2022/08/15 04:15:58;;;;;;;17.10;14.07;;;24.90;97.70;;;;;;5093416;28;20188;-54
2022/08/15 04:18:25;;;;;;;16.73;12.35;;;24.80;97.90;;;;;;5082120;28;20246;-55
2022/08/15 04:20:55;;;;;;;19.38;12.77;;;24.80;98.10;;;;;;5094764;28;20174;-56
2022/08/15 04:23:20;;;;;;;15.60;13.38;;;24.70;98.30;;;;;;5085778;28;20173;-54
2022/08/15 04:25:46;;;;;;;20.92;13.50;;;24.60;98.40;;;;;;5092942;28;20596;-55
2022/08/15 04:28:15;;;;;;;20.33;14.15;;;24.60;98.60;;;;;;5094406;28;20300;-55
2022/08/15 04:30:43;;;;;;;15.73;13.85;;;24.60;98.70;;;;;;5092441;28;20212;-53
2022/08/15 04:33:12;;;;;;;18.95;14.48;;;24.50;98.90;;;;;;5092160;28;20664;-55
2022/08/15 04:35:41;;;;;;;19.58;14.00;;;24.50;99.30;;;;;;5081368;28;20197;-55
2022/08/15 04:38:07;;;;;;;27.85;15.23;;;24.40;99.50;;;;;;5093777;28;20185;-53
2022/08/15 04:40:34;;;;;;;23.63;16.38;;;24.40;99.90;;;;;;5094582;28;20181;-53
2022/08/15 04:43:01;;;;;;;27.35;16.80;;;24.40;99.90;;;;;;5085358;28;20271;-54
2022/08/15 04:45:32;;;;;;;23.85;16.15;;;24.30;99.90;;;;;;5091916;28;20181;-53
2022/08/15 04:48:02;;;;;;;24.85;17.73;;;24.30;99.90;;;;;;5075817;28;20684;-52
2022/08/15 04:50:38;;;;;;;24.73;16.50;;;24.30;99.90;;;;;;5088002;28;20185;-54
2022/08/15 04:53:12;;;;;;;20.23;16.05;;;24.30;99.90;;;;;;5093051;28;20230;-53
2022/08/15 04:55:42;;;;;;;20.65;15.65;;;24.30;99.90;;;;;;5106964;28;20188;-63
2022/08/15 04:58:11;;;;;;;22.73;14.85;;;24.10;99.90;;;;;;5075125;28;20332;-55
2022/08/15 05:00:40;;;;;;;20.45;14.50;;;24.00;99.90;;;;;;5090298;28;20192;-47
2022/08/15 05:03:16;;;;;;;19.73;15.20;;;23.90;99.90;;;;;;5097710;27;20240;-56
2022/08/15 05:05:49;;;;;;;20.92;13.95;;;23.80;99.90;;;;;;5091116;28;20180;-48
2022/08/15 05:08:16;;;;;;;20.80;14.48;;;23.60;99.90;;;;;;5090636;28;20227;-50
2022/08/15 05:10:51;;;;;;;22.58;13.98;;;23.50;99.90;;;;;;5101053;28;20182;-48
2022/08/15 05:13:20;;;;;;;17.17;13.45;;;23.40;99.90;;;;;;5084354;28;20182;-56
2022/08/15 05:15:47;;;;;;;19.08;12.57;;;23.40;99.90;;;;;;5074853;28;20174;-56
2022/08/15 05:18:14;;;;;;;17.92;12.23;;;23.30;99.90;;;;;;5079535;28;20203;-46
2022/08/15 05:20:41;;;;;;;14.52;10.77;;;23.30;99.90;;;;;;5079767;28;20605;-50
2022/08/15 05:23:11;;;;;;;21.70;10.55;;;23.30;99.90;;;;;;5102389;28;20185;-61
2022/08/15 05:25:50;;;;;;;13.93;9.60;;;23.30;99.90;;;;;;5076507;28;20230;-59
2022/08/15 05:28:17;;;;;;;16.58;8.57;;;23.20;99.90;;;;;;5083989;28;20244;-57
2022/08/15 05:30:43;;;;;;;14.32;8.48;;;23.20;99.90;;;;;;5111380;27;20177;-52
2022/08/15 05:33:16;;;;;;;19.23;8.43;;;23.20;99.90;;;;;;5065564;28;20231;-59
2022/08/15 05:35:44;;;;;;;17.27;8.75;;;23.20;99.90;;;;;;5090762;28;20173;-49
2022/08/15 05:38:17;;;;;;;14.13;8.88;;;23.20;99.90;;;;;;5085457;28;20196;-56
2022/08/15 05:41:01;;;;;;;14.57;8.57;;;23.20;99.90;;;;;;5089151;28;20655;-49
2022/08/15 05:43:53;;;;;;;13.88;8.93;;;23.20;99.90;;;;;;5089438;28;20177;-46
2022/08/15 05:46:36;;;;;;;14.23;7.47;;;23.20;99.90;;;;;;5092341;28;20221;-53
2022/08/15 05:49:34;;;;;;;12.77;8.20;;;23.20;99.90;;;;;;5086518;28;20327;-52
2022/08/15 05:52:15;;;;;;;11.52;7.45;;;23.30;99.90;;;;;;5101099;28;20629;-53
2022/08/15 05:54:56;;;;;;;17.92;7.13;;;23.30;99.90;;;;;;5076761;28;20600;-45
2022/08/15 05:57:33;;;;;;;10.10;6.60;;;23.30;99.90;;;;;;5093282;28;20223;-48
2022/08/15 06:00:08;;;;;;;14.00;7.03;;;23.20;99.90;;;;;;5070869;28;20189;-45
2022/08/15 06:02:45;;;;;;;14.63;7.22;;;23.20;99.90;;;;;;5107276;28;20180;-51
2022/08/15 06:05:17;;;;;;;16.85;7.55;;;23.30;99.90;;;;;;5094437;28;20181;-50
2022/08/15 06:07:49;;;;;;;12.88;8.32;;;23.30;99.90;;;;;;5096146;28;20691;-50
2022/08/15 06:10:25;;;;;;;16.33;8.45;;;23.40;99.90;;;;;;5079091;28;20664;-47
2022/08/15 06:13:14;;;;;;;12.00;6.78;;;23.50;99.90;;;;;;5095304;28;20203;-51
2022/08/15 06:15:58;;;;;;;10.20;5.40;;;23.60;99.90;;;;;;5079736;28;20599;-51
2022/08/15 06:18:28;;;;;;;9.07;4.95;;;23.60;99.90;;;;;;5091329;28;20267;-48
2022/08/15 06:21:16;;;;;;;10.18;4.90;;;23.50;99.90;;;;;;5075130;28;20178;-47
2022/08/15 06:23:55;;;;;;;7.22;4.10;;;23.50;99.60;;;;;;5073606;28;20212;-48
2022/08/15 06:26:37;;;;;;;12.43;4.00;;;23.50;99.40;;;;;;5090888;28;20184;-51
2022/08/15 06:29:57;;;;;;;8.27;4.00;;;23.50;99.10;;;;;;5092288;28;20188;-45
2022/08/15 06:32:55;;;;;;;10.30;3.80;;;23.50;98.60;;;;;;5072294;28;20197;-50
2022/08/15 06:35:34;;;;;;;7.75;3.50;;;23.60;97.80;;;;;;5084795;28;20264;-45
2022/08/15 06:38:25;;;;;;;6.00;3.20;;;23.60;97.70;;;;;;5108175;28;20184;-48
2022/08/15 06:40:50;;;;;;;8.13;3.25;;;23.60;97.40;;;;;;5113474;28;20197;-49
2022/08/15 06:43:16;;;;;;;6.00;3.13;;;23.70;96.70;;;;;;5107549;28;20209;-52
2022/08/15 06:46:03;;;;;;;6.68;3.42;;;23.70;96.40;;;;;;5094798;28;20828;-46
2022/08/15 06:48:33;;;;;;;9.25;3.70;;;23.70;96.20;;;;;;5081209;28;20235;-50
2022/08/15 06:51:03;;;;;;;8.02;3.40;;;23.70;96.00;;;;;;5090540;28;20177;-50
2022/08/15 06:53:38;;;;;;;9.60;3.75;;;23.70;96.10;;;;;;5082909;28;20235;-51
2022/08/15 06:56:11;;;;;;;9.15;4.20;;;23.70;96.10;;;;;;5112086;28;20188;-48
2022/08/15 06:59:08;;;;;;;13.77;3.72;;;23.70;96.20;;;;;;5078180;28;20181;-50
2022/08/15 07:02:15;;;;;;;8.55;4.00;;;23.80;96.20;;;;;;5078450;28;20186;-49
2022/08/15 07:05:07;;;;;;;6.07;3.95;;;23.80;96.00;;;;;;5096727;28;20306;-50
2022/08/15 07:07:39;;;;;;;12.60;3.80;;;23.90;95.90;;;;;;5115363;28;20204;-50
2022/08/15 07:10:17;;;;;;;9.00;3.88;;;24.00;95.80;;;;;;5097180;28;20610;-50
2022/08/15 07:12:50;;;;;;;9.45;4.10;;;24.00;95.60;;;;;;5101208;28;20237;-55
2022/08/15 07:15:36;;;;;;;7.93;4.22;;;24.10;95.30;;;;;;5095365;28;20193;-48
2022/08/15 07:18:13;;;;;;;9.48;4.55;;;24.10;95.30;;;;;;5078089;28;20748;-44
2022/08/15 07:20:41;;;;;;;9.55;4.30;;;24.10;95.20;;;;;;5077825;28;20181;-48
2022/08/15 07:23:26;;;;;;;10.63;4.65;;;24.20;95.10;;;;;;5061536;28;20186;-50
2022/08/15 07:25:54;;;;;;;9.10;4.38;;;24.20;94.90;;;;;;5060825;28;20170;-46
2022/08/15 07:28:26;;;;;;;11.45;4.82;;;24.20;94.80;;;;;;5061170;28;20317;-51
2022/08/15 07:31:09;;;;;;;9.82;4.57;;;24.30;94.70;;;;;;5085597;28;20182;-49
2022/08/15 07:33:44;;;;;;;11.15;4.65;;;24.30;94.80;;;;;;5090961;28;20182;-46
2022/08/15 07:36:30;;;;;;;8.23;4.60;;;24.40;94.80;;;;;;5076253;28;20172;-52
2022/08/15 07:38:58;;;;;;;12.38;4.45;;;24.50;94.70;;;;;;5113107;28;20177;-47
2022/08/15 07:41:27;;;;;;;8.77;4.60;;;24.60;94.50;;;;;;5095643;28;20193;-45
2022/08/15 07:44:15;;;;;;;9.48;4.65;;;24.70;94.20;;;;;;5076312;28;20185;-52
2022/08/15 07:46:49;;;;;;;6.97;4.28;;;24.80;93.90;;;;;;5077110;28;20278;-48
2022/08/15 07:49:25;;;;;;;9.40;4.30;;;24.80;93.60;;;;;;5089115;28;20277;-45
2022/08/15 07:51:57;;;;;;;7.18;4.35;;;24.90;93.20;;;;;;5080856;28;20531;-51
2022/08/15 07:54:53;;;;;;;10.80;4.40;;;25.00;92.80;;;;;;5111858;28;20192;-45
2022/08/15 07:57:29;;;;;;;10.23;4.15;;;25.00;92.60;;;;;;5089137;28;20284;-49
2022/08/15 08:00:21;;;;;;;9.75;4.30;;;25.10;92.40;;;;;;5095521;28;20551;-52
2022/08/15 08:03:09;;;;;;;9.65;4.55;;;25.20;91.90;;;;;;5107137;28;20652;-45
2022/08/15 08:05:51;;;;;;;9.52;3.97;;;25.30;91.50;;;;;;5092910;28;20624;-48
2022/08/15 08:08:19;;;;;;;8.77;4.40;;;25.50;91.10;;;;;;5060461;28;20239;-45
2022/08/15 08:11:07;;;;;;;6.75;4.28;;;25.50;90.90;;;;;;5084648;28;20174;-51
2022/08/15 08:13:42;;;;;;;9.25;4.13;;;25.60;90.20;;;;;;5097924;28;20178;-51
2022/08/15 08:16:36;;;;;;;5.65;4.00;;;25.70;89.90;;;;;;5076498;28;20178;-50
2022/08/15 08:19:10;;;;;;;9.65;4.53;;;25.70;88.90;;;;;;5068825;28;20214;-50
2022/08/15 08:21:50;;;;;;;6.60;4.30;;;25.80;88.50;;;;;;5093276;28;20199;-54
2022/08/15 08:24:59;;;;;;;5.53;3.70;;;25.90;87.80;;;;;;5077155;28;20212;-47
2022/08/15 08:27:25;;;;;;;8.27;3.90;;;25.90;87.10;;;;;;5059580;28;20267;-47
2022/08/15 08:30:14;;;;;;;9.48;4.10;;;26.00;87.00;;;;;;5086631;28;20169;-50
2022/08/15 08:32:43;;;;;;;6.68;4.22;;;26.00;86.80;;;;;;5108038;28;20847;-45
2022/08/15 08:35:29;;;;;;;5.78;4.28;;;26.00;86.70;;;;;;5083649;28;20522;-57
2022/08/15 08:38:07;;;;;;;8.40;4.30;;;25.90;86.10;;;;;;5110061;28;20185;-55
2022/08/15 08:43:38;;;;;;;8.40;4.50;;;25.90;85.10;;;;;;5094645;27;20182;-48
2022/08/15 08:46:25;;;;;;;10.40;4.40;;;25.90;84.50;;;;;;5061711;28;20239;-52
2022/08/15 08:49:05;;;;;;;9.68;4.50;;;25.90;84.30;;;;;;5084529;28;20541;-50
2022/08/15 08:51:37;;;;;;;5.25;4.40;;;25.80;83.50;;;;;;5114405;28;20173;-47
2022/08/15 08:54:05;;;;;;;5.55;4.50;;;25.80;83.60;;;;;;5110429;28;20491;-50
2022/08/15 08:56:37;;;;;;;6.45;4.53;;;25.80;83.80;;;;;;5114752;28;20261;-50
2022/08/15 08:59:10;;;;;;;7.40;4.30;;;25.80;83.70;;;;;;5093449;28;20181;-48
2022/08/15 09:01:37;;;;;;;8.02;5.03;;;25.80;83.80;;;;;;5099904;28;20216;-48
2022/08/15 09:04:15;;;;;;;7.47;4.80;;;25.80;83.70;;;;;;5074754;28;20228;-47
2022/08/15 09:06:46;;;;;;;7.50;5.03;;;25.80;83.00;;;;;;5109230;27;20184;-49
2022/08/15 09:09:34;;;;;;;8.93;5.32;;;25.80;83.10;;;;;;5101531;28;20238;-48
2022/08/15 09:15:26;;;;;;;6.97;4.95;;;25.70;82.60;;;;;;5091565;28;20227;-49
2022/08/15 09:17:58;;;;;;;6.00;4.88;;;25.70;82.90;;;;;;5090243;28;20185;-51
2022/08/15 09:20:38;;;;;;;7.60;5.13;;;25.70;83.30;;;;;;5112754;28;20191;-50
2022/08/15 09:23:06;;;;;;;7.22;5.15;;;25.70;83.40;;;;;;5111964;28;20169;-46
2022/08/15 09:25:35;;;;;;;8.45;5.07;;;25.80;83.20;;;;;;5093667;28;20222;-46
2022/08/15 09:28:08;;;;;;;8.82;5.30;;;25.70;83.50;;;;;;5109051;28;20710;-49
2022/08/15 09:30:34;;;;;;;7.82;4.80;;;25.70;83.60;;;;;;5090276;28;20181;-52
2022/08/15 09:33:28;;;;;;;6.40;5.13;;;25.80;83.80;;;;;;5102631;28;20189;-48
2022/08/15 09:36:13;;;;;;;7.18;5.10;;;25.90;84.20;;;;;;5097180;28;20190;-51
2022/08/15 09:38:57;;;;;;;14.27;5.70;;;25.90;84.60;;;;;;5060030;28;20182;-48
2022/08/15 09:41:42;;;;;;;10.25;5.18;;;26.00;85.00;;;;;;5075148;28;20177;-47
2022/08/15 09:44:25;;;;;;;11.43;6.80;;;26.10;85.90;;;;;;5096867;28;20261;-49
2022/08/15 09:47:00;;;;;;;9.15;5.57;;;26.10;86.90;;;;;;5074939;28;20226;-49
2022/08/15 09:50:01;;;;;;;8.48;6.28;;;26.10;87.60;;;;;;5093441;28;20208;-51
2022/08/15 09:52:35;;;;;;;10.35;5.65;;;26.10;88.00;;;;;;5075051;28;20267;-50
2022/08/15 09:55:34;;;;;;;10.25;5.78;;;26.20;88.20;;;;;;5093477;28;20186;-51
2022/08/15 09:58:12;;;;;;;11.02;6.55;;;26.20;87.80;;;;;;5071009;28;20193;-54
2022/08/15 10:00:57;;;;;;;13.48;6.70;;;26.30;88.00;;;;;;5074025;28;20227;-51
2022/08/15 10:03:44;;;;;;;9.23;6.43;;;26.40;88.40;;;;;;5075492;28;20182;-51
2022/08/15 10:06:18;;;;;;;8.65;5.97;;;26.40;88.30;;;;;;5092919;28;20244;-48
2022/08/15 10:08:53;;;;;;;11.20;6.50;;;26.40;88.40;;;;;;5092840;28;20668;-48
2022/08/15 10:11:38;;;;;;;9.75;6.25;;;26.50;88.70;;;;;;5093370;28;20196;-51
2022/08/15 10:14:25;;;;;;;10.15;6.10;;;26.60;88.90;;;;;;5075498;28;20189;-52
2022/08/15 10:17:04;;;;;;;12.10;6.15;;;26.70;87.90;;;;;;5074421;28;20189;-51
2022/08/15 10:19:34;;;;;;;10.00;6.00;;;26.60;88.80;;;;;;5073879;28;20187;-52
2022/08/15 10:22:21;;;;;;;8.73;6.30;;;26.70;88.80;;;;;;5117349;28;20162;-52
2022/08/15 10:25:16;;;;;;;12.25;6.55;;;26.60;88.60;;;;;;5096078;28;20209;-52
2022/08/15 10:28:09;;;;;;;15.18;7.03;;;26.50;88.60;;;;;;5115766;27;20216;-48
2022/08/15 10:30:48;;;;;;;18.20;7.75;;;26.50;90.10;;;;;;5078221;28;20182;-49
2022/08/15 10:33:33;;;;;;;12.75;6.70;;;26.50;90.90;;;;;;5097476;27;20192;-49
2022/08/15 10:36:14;;;;;;;13.63;6.75;;;26.60;91.80;;;;;;5110653;28;20180;-49
2022/08/15 10:38:47;;;;;;;17.35;6.43;;;26.70;92.20;;;;;;5114426;28;20181;-49
2022/08/15 10:41:31;;;;;;;12.52;7.38;;;26.80;91.40;;;;;;5097922;28;20607;-48
2022/08/15 10:44:20;;;;;;;12.57;8.27;;;26.80;91.20;;;;;;5111397;28;20260;-49
2022/08/15 10:46:53;;;;;;;15.25;8.43;;;26.70;92.00;;;;;;5078600;28;20226;-50
2022/08/15 10:49:22;;;;;;;14.38;9.63;;;26.70;92.60;;;;;;5096987;28;20213;-47
2022/08/15 10:52:07;;;;;;;15.70;9.45;;;26.70;92.70;;;;;;5095686;28;20243;-50
2022/08/15 10:54:44;;;;;;;13.90;8.27;;;26.70;92.30;;;;;;5097268;28;20632;-51
2022/08/15 10:57:18;;;;;;;15.00;8.88;;;26.70;92.20;;;;;;5097825;28;20249;-52
2022/08/15 10:59:48;;;;;;;14.73;8.23;;;26.60;91.60;;;;;;5099825;27;20728;-48
2022/08/15 11:02:41;;;;;;;15.02;7.22;;;26.50;91.60;;;;;;5096167;28;20219;-46
2022/08/15 11:05:11;;;;;;;16.23;7.32;;;26.50;91.30;;;;;;5096627;28;20219;-49
2022/08/15 11:07:46;;;;;;;16.08;7.65;;;26.60;91.40;;;;;;5096289;28;20237;-51
2022/08/15 11:10:14;;;;;;;12.25;7.55;;;26.70;91.20;;;;;;5097909;28;20184;-52
2022/08/15 11:12:46;;;;;;;14.48;8.23;;;26.80;91.00;;;;;;5098355;28;20264;-49
2022/08/15 11:15:32;;;;;;;14.73;6.53;;;26.90;90.90;;;;;;5079965;28;20201;-50
2022/08/15 11:18:08;;;;;;;14.77;6.95;;;27.00;89.20;;;;;;5096505;28;20596;-50
2022/08/15 11:20:40;;;;;;;15.32;7.20;;;27.00;89.00;;;;;;5077740;28;20186;-50
2022/08/15 11:23:07;;;;;;;15.98;7.30;;;27.10;88.90;;;;;;5061014;28;20527;-50
2022/08/15 11:25:43;;;;;;;12.68;6.95;;;27.10;88.90;;;;;;5090970;28;20192;-48
2022/08/15 11:28:25;;;;;;;17.27;7.30;;;27.00;89.60;;;;;;5112741;28;20197;-56
2022/08/15 11:31:00;;;;;;;14.43;8.27;;;26.90;89.80;;;;;;5076643;28;20189;-46
2022/08/15 11:33:34;;;;;;;13.73;7.05;;;26.80;89.90;;;;;;5095490;28;20180;-46
2022/08/15 11:36:18;;;;;;;11.93;7.03;;;26.70;90.20;;;;;;5109956;28;20180;-51
2022/08/15 11:38:53;;;;;;;11.55;6.68;;;26.70;90.20;;;;;;5113714;28;20172;-51
2022/08/15 11:41:41;;;;;;;11.05;7.13;;;26.70;90.30;;;;;;5083880;28;20327;-51
2022/08/15 11:44:10;;;;;;;15.57;7.88;;;26.70;90.60;;;;;;5099708;28;20177;-52
2022/08/15 11:46:37;;;;;;;20.35;8.18;;;26.60;90.70;;;;;;5107892;28;20250;-47
2022/08/15 11:49:10;;;;;;;13.10;7.57;;;26.60;91.00;;;;;;5113943;28;20192;-47
2022/08/15 11:51:42;;;;;;;21.00;9.70;;;26.50;90.90;;;;;;5097570;28;20636;-47
2022/08/15 11:54:10;;;;;;;16.40;9.25;;;26.50;91.40;;;;;;5096200;28;20317;-46
2022/08/15 11:57:19;;;;;;;17.13;9.70;;;26.40;91.70;;;;;;5107487;28;20205;-49
2022/08/15 11:59:59;;;;;;;17.55;9.48;;;26.30;92.30;;;;;;5011219;28;20706;-50
2022/08/15 12:02:30;;;;;;;16.60;7.80;;;26.20;92.10;;;;;;5055487;28;20272;-47
2022/08/15 12:05:08;;;;;;;16.38;8.00;;;26.10;92.40;;;;;;5093851;28;20230;-45
2022/08/15 12:07:46;;;;;;;11.85;8.18;;;26.10;92.30;;;;;;5107582;28;20216;-51
2022/08/15 12:10:25;;;;;;;15.20;8.40;;;26.00;92.10;;;;;;5095422;28;20188;-50
2022/08/15 12:12:52;;;;;;;14.63;8.15;;;25.90;92.10;;;;;;5083524;28;20185;-54
2022/08/15 12:15:25;;;;;;;13.13;8.35;;;25.90;92.30;;;;;;5113200;28;20257;-51
2022/08/15 12:18:20;;;;;;;14.07;7.82;;;26.00;92.50;;;;;;5087227;28;20186;-50
2022/08/15 12:20:55;;;;;;;14.38;7.30;;;26.00;91.90;;;;;;5077017;28;20713;-48
2022/08/15 12:23:36;;;;;;;10.93;6.65;;;26.00;91.70;;;;;;5070939;28;20518;-51
2022/08/15 12:26:14;;;;;;;13.05;6.90;;;25.90;91.50;;;;;;5080177;28;20217;-49
2022/08/15 12:28:41;;;;;;;12.38;6.95;;;25.70;91.80;;;;;;5111765;28;20200;-52
2022/08/15 12:31:22;;;;;;;13.52;7.70;;;25.80;92.10;;;;;;5075324;28;20178;-49
2022/08/15 12:34:00;;;;;;;13.70;7.55;;;25.80;92.20;;;;;;5102348;28;20285;-49
2022/08/15 12:36:27;;;;;;;14.52;7.30;;;25.90;92.10;;;;;;5094644;28;20204;-49
2022/08/15 12:38:53;;;;;;;14.48;7.32;;;25.90;92.20;;;;;;5092616;28;20585;-50
2022/08/15 12:41:19;;;;;;;12.63;6.63;;;25.80;92.10;;;;;;5093823;28;20185;-48
2022/08/15 12:43:44;;;;;;;13.40;7.15;;;25.70;92.10;;;;;;5076548;28;20174;-47
2022/08/15 12:46:10;;;;;;;13.57;7.32;;;25.70;92.20;;;;;;5097017;28;20209;-52
2022/08/15 12:48:39;;;;;;;13.20;7.18;;;25.70;92.30;;;;;;5093920;28;20715;-49
2022/08/15 12:51:09;;;;;;;16.75;7.47;;;25.60;92.40;;;;;;5094055;28;20189;-48
2022/08/15 12:53:38;;;;;;;12.77;7.47;;;25.70;92.60;;;;;;5089323;28;20668;-52
2022/08/15 12:56:08;;;;;;;13.85;7.05;;;25.80;92.50;;;;;;5094108;28;20190;-46
2022/08/15 12:58:36;;;;;;;11.55;7.13;;;25.90;92.40;;;;;;5093241;28;20190;-52
2022/08/15 13:01:07;;;;;;;12.95;7.68;;;26.20;92.30;;;;;;5093395;28;20178;-47
2022/08/15 13:03:33;;;;;;;12.20;7.57;;;26.20;91.90;;;;;;5093111;28;20227;-52
2022/08/15 13:06:07;;;;;;;13.23;7.18;;;26.30;91.80;;;;;;5113112;28;20326;-45
2022/08/15 13:08:33;;;;;;;13.23;7.50;;;26.40;91.60;;;;;;5112826;28;20216;-46
2022/08/15 13:11:00;;;;;;;13.95;7.40;;;26.50;91.60;;;;;;5109685;28;20198;-47
2022/08/15 13:13:26;;;;;;;10.57;6.13;;;26.60;91.50;;;;;;5093647;28;20250;-48
2022/08/15 13:15:51;;;;;;;13.20;6.40;;;26.70;91.10;;;;;;5093474;28;20209;-48
2022/08/15 13:18:24;;;;;;;11.95;5.35;;;26.90;90.70;;;;;;5112571;28;20550;-49
2022/08/15 13:23:37;;;;;;;10.82;6.03;;;27.40;87.70;;;;;;5093117;28;20177;-47